createdAt,value
2022-10-11T00:01:47.181Z,2.45
2022-10-11T00:04:13.862Z,3.13
2022-10-11T00:06:43.345Z,2.45
2022-10-11T00:09:14.710Z,2.38
2022-10-11T00:11:41.514Z,3.20
2022-10-11T00:14:08.287Z,2.78
2022-10-11T00:16:35.314Z,2.65
2022-10-11T00:19:01.972Z,2.72
2022-10-11T00:21:28.634Z,2.63
2022-10-11T00:23:55.279Z,2.47
2022-10-11T00:26:21.920Z,3.70
2022-10-11T00:28:52.565Z,2.13
2022-10-11T00:31:19.523Z,2.53
2022-10-11T00:33:46.273Z,2.90
2022-10-11T00:36:14.759Z,3.15
2022-10-11T00:38:41.608Z,2.85
2022-10-11T00:41:08.366Z,2.80
2022-10-11T00:43:35.528Z,2.55
2022-10-11T00:46:14.115Z,2.63
2022-10-11T00:48:50.392Z,3.10
2022-10-11T00:51:23.931Z,3.10
2022-10-11T00:53:51.999Z,3.08
2022-10-11T00:56:32.764Z,2.47
2022-10-11T00:59:01.930Z,2.40
2022-10-11T01:01:28.825Z,2.38
2022-10-11T01:03:56.716Z,2.40
2022-10-11T01:06:23.480Z,2.77
2022-10-11T01:08:51.392Z,2.03
2022-10-11T01:11:21.200Z,2.40
2022-10-11T01:13:59.999Z,2.53
2022-10-11T01:16:39.935Z,2.53
2022-10-11T01:19:49.293Z,2.88
2022-10-11T01:22:40.531Z,2.80
2022-10-11T01:25:29.304Z,2.50
2022-10-11T01:28:17.609Z,2.50
2022-10-11T01:30:44.427Z,2.55
2022-10-11T01:33:18.416Z,2.83
2022-10-11T01:36:02.540Z,2.45
2022-10-11T01:38:44.525Z,2.88
2022-10-11T01:41:27.432Z,3.42
2022-10-11T01:43:58.707Z,3.20
2022-10-11T01:46:26.196Z,2.67
2022-10-11T01:48:56.216Z,3.28
2022-10-11T01:51:27.183Z,2.75
2022-10-11T01:54:13.562Z,2.67
2022-10-11T01:57:13.003Z,2.47
2022-10-11T02:00:19.334Z,2.55
2022-10-11T02:02:58.045Z,2.45
2022-10-11T02:07:59.853Z,2.90
2022-10-11T02:10:42.415Z,2.60
2022-10-11T02:13:18.277Z,2.85
2022-10-11T02:15:47.555Z,2.65
2022-10-11T02:18:18.219Z,2.50
2022-10-11T02:20:46.953Z,2.67
2022-10-11T02:25:44.792Z,2.47
2022-10-11T02:28:16.546Z,2.47
2022-10-11T02:30:46.933Z,2.38
2022-10-11T02:33:18.409Z,2.08
2022-10-11T02:35:49.384Z,2.35
2022-10-11T02:38:21.988Z,2.35
2022-10-11T02:40:56.643Z,2.42
2022-10-11T02:43:31.660Z,2.38
2022-10-11T02:46:01.625Z,2.00
2022-10-11T02:48:29.979Z,2.20
2022-10-11T02:50:58.087Z,5.28
2022-10-11T02:53:25.846Z,3.00
2022-10-11T02:55:53.854Z,2.70
2022-10-11T02:58:21.434Z,1.63
2022-10-11T03:00:48.471Z,1.80
2022-10-11T03:03:15.365Z,2.38
2022-10-11T03:05:43.514Z,2.22
2022-10-11T03:08:13.266Z,2.20
2022-10-11T03:10:40.046Z,2.33
2022-10-11T03:13:07.225Z,2.10
2022-10-11T03:15:34.215Z,2.67
2022-10-11T03:18:00.877Z,2.10
2022-10-11T03:20:27.671Z,1.73
2022-10-11T03:22:54.335Z,1.85
2022-10-11T03:25:21.070Z,1.83
2022-10-11T03:27:47.858Z,2.13
2022-10-11T03:30:18.274Z,2.03
2022-10-11T03:32:45.874Z,2.22
2022-10-11T03:35:12.709Z,1.70
2022-10-11T03:37:39.491Z,1.67
2022-10-11T03:40:10.566Z,1.80
2022-10-11T03:42:37.644Z,2.05
2022-10-11T03:45:08.029Z,2.17
2022-10-11T03:47:38.789Z,1.98
2022-10-11T03:50:07.200Z,1.60
2022-10-11T03:52:34.821Z,2.28
2022-10-11T03:55:01.625Z,1.98
2022-10-11T03:57:28.369Z,1.95
2022-10-11T03:59:55.030Z,2.10
2022-10-11T04:02:21.713Z,1.75
2022-10-11T04:04:48.703Z,2.30
2022-10-11T04:07:15.420Z,1.90
2022-10-11T04:09:42.162Z,1.67
2022-10-11T04:12:08.808Z,2.20
2022-10-11T04:14:35.474Z,1.95
2022-10-11T04:17:02.118Z,2.40
2022-10-11T04:19:29.185Z,2.35
2022-10-11T04:21:55.911Z,1.80
2022-10-11T04:24:22.748Z,1.70
2022-10-11T04:26:49.591Z,1.75
2022-10-11T04:29:16.408Z,1.83
2022-10-11T04:31:43.153Z,1.70
2022-10-11T04:34:09.791Z,1.85
2022-10-11T04:36:36.553Z,1.85
2022-10-11T04:39:03.284Z,2.10
2022-10-11T04:41:30.036Z,2.08
2022-10-11T04:43:56.989Z,2.03
2022-10-11T04:46:24.435Z,2.00
2022-10-11T04:48:52.377Z,2.13
2022-10-11T04:51:19.227Z,1.60
2022-10-11T04:53:45.993Z,1.60
2022-10-11T04:56:14.835Z,2.10
2022-10-11T04:58:41.655Z,2.30
2022-10-11T05:01:09.432Z,1.83
2022-10-11T05:03:36.171Z,1.80
2022-10-11T05:06:05.930Z,1.63
2022-10-11T05:08:33.425Z,1.92
2022-10-11T05:11:04.050Z,1.75
2022-10-11T05:13:31.821Z,1.92
2022-10-11T05:15:58.606Z,2.10
2022-10-11T05:18:25.950Z,2.13
2022-10-11T05:21:18.067Z,2.25
2022-10-11T05:23:45.787Z,2.10
2022-10-11T05:26:12.766Z,2.10
2022-10-11T05:28:39.793Z,2.22
2022-10-11T05:31:06.833Z,2.67
2022-10-11T05:33:34.040Z,1.85
2022-10-11T05:36:00.811Z,1.98
2022-10-11T05:38:27.667Z,2.35
2022-10-11T05:40:54.680Z,2.08
2022-10-11T05:43:21.358Z,2.50
2022-10-11T05:45:48.036Z,2.65
2022-10-11T05:48:14.759Z,2.65
2022-10-11T05:50:41.663Z,2.55
2022-10-11T05:53:08.379Z,2.28
2022-10-11T05:55:39.617Z,2.55
2022-10-11T05:58:12.353Z,2.65
2022-10-11T06:00:39.227Z,2.53
2022-10-11T06:03:08.576Z,2.38
2022-10-11T06:05:36.045Z,2.38
2022-10-11T06:08:04.168Z,2.55
2022-10-11T06:10:30.816Z,2.50
2022-10-11T06:12:57.630Z,2.40
2022-10-11T06:15:24.839Z,2.80
2022-10-11T06:17:51.741Z,2.53
2022-10-11T06:20:18.743Z,2.40
2022-10-11T06:22:45.395Z,2.70
2022-10-11T06:25:12.219Z,2.70
2022-10-11T06:27:38.941Z,2.80
2022-10-11T06:30:07.330Z,2.90
2022-10-11T06:32:34.235Z,2.95
2022-10-11T06:35:03.277Z,2.25
2022-10-11T06:37:30.090Z,2.47
2022-10-11T06:39:56.756Z,2.65
2022-10-11T06:42:25.638Z,2.63
2022-10-11T06:47:19.039Z,2.70
2022-10-11T06:49:45.815Z,2.70
2022-10-11T06:52:12.552Z,2.97
2022-10-11T06:54:43.914Z,3.08
2022-10-11T06:57:11.581Z,2.65
2022-10-11T06:59:38.271Z,3.17
2022-10-11T07:02:05.265Z,3.42
2022-10-11T07:04:33.836Z,3.75
2022-10-11T07:07:00.688Z,3.15
2022-10-11T07:09:27.457Z,3.30
2022-10-11T07:11:54.197Z,3.38
2022-10-11T07:14:23.243Z,3.20
2022-10-11T07:16:49.899Z,3.28
2022-10-11T07:19:16.673Z,3.13
2022-10-11T07:21:44.437Z,3.60
2022-10-11T07:24:11.161Z,3.83
2022-10-11T07:26:38.656Z,3.67
2022-10-11T07:29:07.890Z,3.45
2022-10-11T07:31:36.138Z,3.15
2022-10-11T07:34:02.832Z,3.40
2022-10-11T07:36:29.588Z,3.75
2022-10-11T07:38:57.355Z,2.85
2022-10-11T07:41:25.066Z,4.07
2022-10-11T07:43:51.739Z,4.35
2022-10-11T07:46:18.928Z,4.05
2022-10-11T07:48:45.652Z,4.00
2022-10-11T07:51:13.476Z,4.32
2022-10-11T07:53:46.021Z,3.97
2022-10-11T07:56:18.577Z,3.83
2022-10-11T07:58:51.550Z,4.18
2022-10-11T08:01:20.073Z,4.30
2022-10-11T08:03:47.589Z,4.28
2022-10-11T08:06:17.098Z,4.55
2022-10-11T08:08:43.901Z,4.97
2022-10-11T08:11:11.159Z,4.78
2022-10-11T08:13:38.031Z,4.20
2022-10-11T08:16:12.554Z,5.60
2022-10-11T08:18:40.419Z,4.45
2022-10-11T08:21:12.435Z,4.23
2022-10-11T08:23:39.874Z,4.70
2022-10-11T08:26:07.837Z,5.20
2022-10-11T08:28:35.385Z,4.72
2022-10-11T08:31:02.929Z,4.50
2022-10-11T08:33:31.004Z,3.65
2022-10-11T08:35:58.409Z,4.25
2022-10-11T08:38:25.095Z,3.92
2022-10-11T08:40:56.990Z,4.18
2022-10-11T08:43:36.675Z,4.03
2022-10-11T08:46:06.664Z,4.68
2022-10-11T08:48:44.097Z,4.32
2022-10-11T08:51:27.951Z,3.88
2022-10-11T08:54:07.143Z,3.13
2022-10-11T08:56:37.307Z,3.90
2022-10-11T08:59:12.878Z,3.95
2022-10-11T09:01:47.394Z,3.63
2022-10-11T09:04:16.974Z,3.20
2022-10-11T09:07:07.342Z,3.85
2022-10-11T09:10:09.737Z,3.65
2022-10-11T09:12:40.936Z,3.38
2022-10-11T09:15:33.330Z,3.45
2022-10-11T09:18:29.815Z,3.63
2022-10-11T09:21:26.336Z,3.63
2022-10-11T09:24:09.131Z,4.60
2022-10-11T09:26:40.305Z,4.10
2022-10-11T09:29:45.572Z,3.30
2022-10-11T09:32:20.900Z,3.28
2022-10-11T09:34:57.569Z,3.83
2022-10-11T09:37:40.985Z,2.90
2022-10-11T09:40:27.943Z,3.42
2022-10-11T09:42:54.620Z,3.72
2022-10-11T09:45:22.418Z,2.92
2022-10-11T09:47:52.340Z,2.67
2022-10-11T09:50:23.283Z,2.58
2022-10-11T09:52:55.854Z,3.03
2022-10-11T09:55:40.385Z,2.80
2022-10-11T09:58:25.429Z,2.13
2022-10-11T10:01:07.601Z,2.40
2022-10-11T10:03:37.758Z,2.60
2022-10-11T10:06:07.776Z,2.85
2022-10-11T10:08:35.645Z,2.67
2022-10-11T10:11:07.744Z,2.80
2022-10-11T10:13:41.275Z,3.53
2022-10-11T10:16:18.461Z,2.90
2022-10-11T10:19:07.110Z,2.60
2022-10-11T10:21:43.901Z,2.67
2022-10-11T10:24:39.148Z,3.20
2022-10-11T10:27:14.425Z,2.35
2022-10-11T10:29:41.318Z,2.65
2022-10-11T10:32:16.269Z,2.38
2022-10-11T10:35:26.079Z,2.45
2022-10-11T10:38:06.597Z,2.25
2022-10-11T10:40:42.738Z,2.22
2022-10-11T10:43:19.089Z,1.70
2022-10-11T10:46:21.686Z,2.08
2022-10-11T10:49:41.177Z,2.03
2022-10-11T10:52:03.081Z,2.45
2022-10-11T10:54:38.320Z,1.70
2022-10-11T10:57:31.089Z,2.00
2022-10-11T11:00:15.808Z,1.88
2022-10-11T11:03:02.242Z,2.00
2022-10-11T11:05:48.430Z,1.75
2022-10-11T11:08:33.165Z,2.03
2022-10-11T11:11:25.590Z,1.75
2022-10-11T11:14:20.071Z,1.73
2022-10-11T11:17:06.020Z,1.73
2022-10-11T11:20:08.693Z,2.50
2022-10-11T11:22:52.676Z,1.65
2022-10-11T11:25:25.540Z,1.92
2022-10-11T11:28:13.093Z,1.88
2022-10-11T11:30:57.313Z,1.70
2022-10-11T11:33:48.795Z,1.95
2022-10-11T11:36:42.617Z,1.63
2022-10-11T11:39:25.919Z,2.03
2022-10-11T11:41:58.448Z,2.22
2022-10-11T11:44:38.451Z,2.20
2022-10-11T11:47:13.712Z,2.45
2022-10-11T11:49:58.850Z,2.25
2022-10-11T11:52:41.291Z,1.80
2022-10-11T11:55:16.975Z,1.80
2022-10-11T11:58:21.409Z,2.25
2022-10-11T12:01:14.982Z,2.55
2022-10-11T12:03:47.057Z,1.70
2022-10-11T12:06:13.946Z,2.00
2022-10-11T12:09:05.938Z,1.98
2022-10-11T12:11:38.425Z,2.67
2022-10-11T12:14:16.338Z,2.00
2022-10-11T12:17:12.906Z,1.73
2022-10-11T12:19:42.484Z,3.33
2022-10-11T12:22:37.745Z,2.25
2022-10-11T12:25:12.805Z,2.72
2022-10-11T12:27:47.388Z,1.98
2022-10-11T12:30:48.211Z,2.15
2022-10-11T12:33:33.395Z,2.28
2022-10-11T12:36:22.968Z,2.17
2022-10-11T12:39:18.285Z,1.98
2022-10-11T12:41:48.433Z,2.15
2022-10-11T12:44:26.420Z,2.08
2022-10-11T12:46:59.291Z,2.83
2022-10-11T12:49:33.710Z,1.73
2022-10-11T12:52:21.944Z,1.55
2022-10-11T12:55:07.295Z,2.30
2022-10-11T12:57:55.470Z,2.30
2022-10-11T13:00:32.063Z,9.90
2022-10-11T13:03:02.511Z,3.22
2022-10-11T13:05:48.692Z,1.88
2022-10-11T13:08:25.838Z,2.60
2022-10-11T13:10:53.677Z,2.13
2022-10-11T13:13:23.796Z,2.50
2022-10-11T13:15:54.081Z,1.77
2022-10-11T13:18:23.868Z,1.80
2022-10-11T13:20:50.829Z,1.92
2022-10-11T13:23:28.426Z,2.10
2022-10-11T13:25:56.485Z,2.57
2022-10-11T13:28:23.896Z,2.33
2022-10-11T13:30:54.331Z,1.92
2022-10-11T13:33:39.468Z,2.08
2022-10-11T13:36:14.538Z,2.47
2022-10-11T13:38:41.187Z,2.75
2022-10-11T13:41:10.475Z,1.98
2022-10-11T13:43:37.795Z,2.55
2022-10-11T13:46:05.631Z,2.60
2022-10-11T13:48:39.963Z,1.90
2022-10-11T13:51:17.590Z,1.77
2022-10-11T13:54:04.769Z,1.90
2022-10-11T13:56:47.941Z,2.00
2022-10-11T13:59:25.588Z,2.15
2022-10-11T14:01:59.055Z,2.10
2022-10-11T14:04:29.522Z,2.15
2022-10-11T14:07:03.260Z,2.72
2022-10-11T14:09:36.723Z,2.13
2022-10-11T14:12:44.252Z,2.38
2022-10-11T14:15:33.542Z,2.20
2022-10-11T14:18:01.685Z,1.50
2022-10-11T14:20:38.172Z,2.13
2022-10-11T14:23:05.992Z,1.90
2022-10-11T14:25:33.003Z,2.35
2022-10-11T14:27:59.917Z,1.90
2022-10-11T14:30:27.979Z,2.42
2022-10-11T14:32:57.863Z,2.13
2022-10-11T14:35:28.225Z,2.30
2022-10-11T14:37:55.118Z,1.95
2022-10-11T14:40:24.398Z,1.98
2022-10-11T14:42:51.338Z,2.65
2022-10-11T14:45:18.718Z,2.60
2022-10-11T14:47:45.388Z,2.70
2022-10-11T14:50:27.136Z,1.98
2022-10-11T14:52:54.180Z,2.10
2022-10-11T14:55:20.822Z,2.95
2022-10-11T14:57:47.484Z,2.78
2022-10-11T15:00:18.522Z,2.13
2022-10-11T15:02:45.494Z,2.15
2022-10-11T15:05:12.307Z,2.35
2022-10-11T15:07:38.949Z,2.80
2022-10-11T15:10:18.292Z,2.33
2022-10-11T15:12:45.186Z,2.53
2022-10-11T15:15:16.146Z,2.60
2022-10-11T15:17:43.530Z,2.58
2022-10-11T15:20:21.561Z,2.20
2022-10-11T15:22:48.728Z,2.28
2022-10-11T15:25:15.731Z,2.85
2022-10-11T15:27:42.592Z,2.65
2022-10-11T15:30:21.804Z,2.60
2022-10-11T15:32:49.155Z,2.63
2022-10-11T15:35:17.115Z,5.13
2022-10-11T15:37:44.668Z,6.45
2022-10-11T15:40:25.114Z,2.70
2022-10-11T15:42:53.702Z,2.20
2022-10-11T15:47:48.571Z,3.47
2022-10-11T15:50:33.684Z,2.95
2022-10-11T15:53:10.513Z,2.80
2022-10-11T15:55:39.956Z,2.30
2022-10-11T15:58:34.352Z,2.22
2022-10-11T16:01:05.954Z,2.78
2022-10-11T16:03:34.044Z,2.70
2022-10-11T16:06:05.195Z,2.17
2022-10-11T16:08:33.297Z,2.28
2022-10-11T16:11:00.547Z,2.20
2022-10-11T16:13:27.248Z,3.72
2022-10-11T16:15:54.155Z,2.20
2022-10-11T16:18:22.113Z,2.13
2022-10-11T16:20:51.848Z,2.40
2022-10-11T16:23:20.467Z,2.95
2022-10-11T16:28:22.334Z,2.10
2022-10-11T16:30:49.094Z,3.17
2022-10-11T16:33:15.763Z,2.78
2022-10-11T16:35:42.855Z,2.97
2022-10-11T16:38:10.480Z,2.38
2022-10-11T16:40:39.236Z,3.00
2022-10-11T16:43:07.850Z,3.08
2022-10-11T16:45:35.563Z,4.20
2022-10-11T16:48:02.408Z,3.42
2022-10-11T16:50:29.171Z,3.28
2022-10-11T16:52:56.229Z,3.22
2022-10-11T16:55:23.399Z,3.03
2022-10-11T16:57:50.131Z,3.17
2022-10-11T17:00:17.221Z,2.88
2022-10-11T17:02:43.917Z,3.70
2022-10-11T17:05:10.589Z,3.90
2022-10-11T17:07:37.385Z,4.95
2022-10-11T17:10:05.082Z,2.95
2022-10-11T17:12:32.491Z,3.87
2022-10-11T17:14:59.189Z,3.78
2022-10-11T17:17:27.022Z,3.72
2022-10-11T17:19:53.877Z,3.80
2022-10-11T17:22:20.624Z,4.47
2022-10-11T17:24:47.458Z,3.55
2022-10-11T17:27:14.497Z,3.35
2022-10-11T17:29:41.319Z,3.78
2022-10-11T17:32:09.125Z,3.90
2022-10-11T17:34:35.896Z,3.80
2022-10-11T17:37:02.693Z,3.67
2022-10-11T17:39:29.373Z,3.83
2022-10-11T17:41:56.011Z,4.07
2022-10-11T17:44:22.719Z,3.50
2022-10-11T17:46:49.378Z,4.13
2022-10-11T17:49:16.033Z,3.83
2022-10-11T17:51:43.178Z,4.20
2022-10-11T17:54:13.037Z,4.55
2022-10-11T17:56:41.583Z,4.45
2022-10-11T17:59:14.427Z,4.07
2022-10-11T18:01:41.259Z,3.80
2022-10-11T18:04:13.393Z,3.63
2022-10-11T18:06:40.183Z,4.18
2022-10-11T18:09:07.196Z,4.70
2022-10-11T18:11:34.273Z,4.82
2022-10-11T18:14:01.361Z,5.18
2022-10-11T18:16:30.002Z,6.40
2022-10-11T18:21:28.760Z,6.32
2022-10-11T18:24:02.969Z,6.20
2022-10-11T18:26:30.882Z,5.63
2022-10-11T18:28:58.654Z,6.60
2022-10-11T18:31:29.801Z,6.90
2022-10-11T18:33:56.906Z,6.85
2022-10-11T18:36:26.700Z,9.35
2022-10-11T18:38:59.246Z,10.35
2022-10-11T18:41:31.996Z,9.77
2022-10-11T18:44:00.951Z,11.15
2022-10-11T18:46:28.596Z,10.23
2022-10-11T18:48:56.476Z,8.38
2022-10-11T18:51:26.358Z,4.70
2022-10-11T18:53:53.806Z,5.05
2022-10-11T18:56:22.158Z,4.13
2022-10-11T18:58:50.369Z,3.08
2022-10-11T19:01:22.603Z,2.60
2022-10-11T19:03:52.579Z,2.75
2022-10-11T19:06:22.908Z,3.78
2022-10-11T19:08:52.990Z,3.65
2022-10-11T19:11:22.122Z,3.30
2022-10-11T19:14:07.015Z,2.95
2022-10-11T19:16:35.684Z,2.70
2022-10-11T19:21:29.911Z,2.92
2022-10-11T19:23:57.169Z,3.05
2022-10-11T19:26:33.511Z,3.38
2022-10-11T19:29:09.339Z,2.60
2022-10-11T19:31:40.230Z,3.00
2022-10-11T19:34:06.963Z,2.25
2022-10-11T19:36:36.671Z,3.13
2022-10-11T19:39:04.622Z,3.70
2022-10-11T19:41:32.068Z,3.58
2022-10-11T19:43:59.187Z,3.53
2022-10-11T19:46:44.414Z,4.18
2022-10-11T19:49:17.799Z,4.03
2022-10-11T19:51:45.514Z,4.43
2022-10-11T19:54:13.933Z,4.63
2022-10-11T19:56:41.182Z,6.30
2022-10-11T19:59:09.933Z,18.42
2022-10-11T20:04:08.121Z,14.30
2022-10-11T20:06:38.906Z,10.57
2022-10-11T20:11:54.144Z,6.80
2022-10-11T20:14:21.005Z,5.32
2022-10-11T20:16:50.750Z,4.93
2022-10-11T20:19:17.673Z,4.72
2022-10-11T20:21:44.941Z,3.33
2022-10-11T20:24:11.730Z,3.17
2022-10-11T20:26:39.133Z,3.47
2022-10-11T20:29:06.171Z,3.78
2022-10-11T20:31:34.559Z,3.53
2022-10-11T20:34:04.109Z,4.20
2022-10-11T20:36:32.113Z,3.65
2022-10-11T20:38:59.750Z,3.85
2022-10-11T20:41:32.098Z,2.97
2022-10-11T20:44:01.277Z,3.05
2022-10-11T20:46:36.840Z,3.28
2022-10-11T20:49:07.022Z,2.78
2022-10-11T20:51:36.188Z,2.97
2022-10-11T20:54:04.180Z,2.67
2022-10-11T20:56:31.489Z,2.63
2022-10-11T20:58:58.792Z,2.90
2022-10-11T21:01:30.939Z,3.47
2022-10-11T21:03:59.144Z,2.70
2022-10-11T21:06:26.969Z,3.90
2022-10-11T21:08:56.078Z,2.73
2022-10-11T21:11:26.990Z,2.90
2022-10-11T21:13:58.398Z,3.13
2022-10-11T21:16:25.745Z,2.60
2022-10-11T21:18:54.018Z,2.75
2022-10-11T21:21:21.117Z,2.70
2022-10-11T21:23:47.926Z,2.90
2022-10-11T21:26:18.086Z,3.30
2022-10-11T21:28:45.654Z,2.88
2022-10-11T21:31:15.133Z,2.67
2022-10-11T21:33:43.251Z,3.17
2022-10-11T21:36:15.683Z,3.10
2022-10-11T21:38:42.628Z,2.75
2022-10-11T21:41:13.333Z,2.33
2022-10-11T21:43:40.064Z,3.08
2022-10-11T21:46:16.440Z,2.80
2022-10-11T21:48:43.425Z,3.72
2022-10-11T21:51:19.172Z,2.60
2022-10-11T21:53:45.854Z,2.72
2022-10-11T21:56:13.718Z,3.05
2022-10-11T21:58:40.564Z,2.40
2022-10-11T22:01:07.432Z,3.08
2022-10-11T22:03:34.238Z,3.17
2022-10-11T22:06:04.191Z,2.83
2022-10-11T22:08:30.891Z,3.17
2022-10-11T22:11:00.165Z,3.00
2022-10-11T22:13:28.408Z,3.38
2022-10-11T22:15:58.125Z,3.33
2022-10-11T22:18:25.475Z,3.70
2022-10-11T22:20:52.569Z,3.55
2022-10-11T22:23:19.294Z,3.45
2022-10-11T22:25:46.278Z,3.25
2022-10-11T22:28:13.313Z,3.08
2022-10-11T22:30:40.334Z,3.30
2022-10-11T22:33:06.991Z,2.58
2022-10-11T22:35:37.530Z,3.20
2022-10-11T22:38:05.768Z,2.47
2022-10-11T22:40:32.619Z,2.42
2022-10-11T22:42:59.292Z,2.88
2022-10-11T22:45:25.936Z,2.65
2022-10-11T22:47:52.625Z,2.70
2022-10-11T22:50:19.343Z,3.17
2022-10-11T22:52:45.999Z,2.95
2022-10-11T22:55:17.571Z,2.78
2022-10-11T22:57:46.485Z,3.00
2022-10-11T23:00:13.600Z,2.60
2022-10-11T23:02:40.346Z,3.00
2022-10-11T23:05:07.343Z,2.90
2022-10-11T23:07:34.105Z,3.22
2022-10-11T23:10:01.044Z,3.20
2022-10-11T23:12:27.674Z,3.17
2022-10-11T23:14:54.296Z,3.20
2022-10-11T23:17:20.980Z,3.15
2022-10-11T23:19:47.714Z,2.85
2022-10-11T23:22:14.673Z,3.95
2022-10-11T23:24:41.445Z,2.78
2022-10-11T23:27:08.078Z,3.28
2022-10-11T23:29:34.821Z,3.38
2022-10-11T23:32:01.654Z,3.20
2022-10-11T23:34:28.345Z,2.90
2022-10-11T23:36:54.998Z,3.08
2022-10-11T23:39:21.651Z,3.38
2022-10-11T23:41:48.298Z,3.03
2022-10-11T23:44:15.165Z,3.40
2022-10-11T23:46:41.783Z,3.05
2022-10-11T23:49:08.432Z,2.80
2022-10-11T23:51:35.108Z,3.35
2022-10-11T23:54:01.802Z,3.08
2022-10-11T23:56:28.542Z,2.80
2022-10-11T23:58:55.184Z,3.03
